CheckWX is a tool to help pilots better visualize weather data.  It is not intended as a substitute for an official pre-flight weather briefing.

15:05:33 UTC

ENEV METAR
Harstad / Narvik , Evenes Airport
Evenes, Norway
Current

16 mins ago

ENEV 201450Z 32008KT 290V360 CAVOK 20/07 Q1014 RMK WIND 1400FT 01009KT
Observed
May-20 @ 14:50 UTC
Wind
  • 320° at 8 KTS
Visibility
10,000+ meters
Flight Rules
VFR
Cloud Levels
  • Clear skies
Temperature
20°C / 68°F
Dewpoint
C / 45°F
Humidity
43%
Altimeter
29.94" Hg
Pressure
1013.92 hPa
Previous

1 hour ago

ENEV 201350Z 33008KT 300V360 CAVOK 21/07 Q1014 RMK WIND 1400FT 02005KT
Observed
May-20 @ 13:50 UTC
Wind
  • 330° at 8 KTS
Visibility
10,000+ meters
Flight Rules
VFR
Cloud Levels
  • Clear skies
Temperature
21°C / 70°F
Dewpoint
C / 45°F
Humidity
40%
Altimeter
29.94" Hg
Pressure
1013.92 hPa
Previous

2 hours ago

ENEV 201250Z 33006KT 270V010 CAVOK 20/06 Q1014 RMK WIND 1400FT VRB03KT
Observed
May-20 @ 12:50 UTC
Wind
  • 330° at 6 KTS
Visibility
10,000+ meters
Flight Rules
VFR
Cloud Levels
  • Clear skies
Temperature
20°C / 68°F
Dewpoint
C / 43°F
Humidity
40%
Altimeter
29.94" Hg
Pressure
1013.92 hPa